Time;durP1;ratioP1;P1;durP2;ratioP2;P2;SDS_P1;SDS_P2;PMS_P1;PMS_P2;Temp;Humidity;BMP_temperature;BMP_pressure;BME280_temperature;BME280_humidity;BME280_pressure;Samples;Min_cycle;Max_cycle;Signal;HPM_P1;HPM_P2
2022/01/11 00:01:28;;;;;;;65.07;47.50;;;;;;;;;;4993749;28;20198;-83
2022/01/11 00:03:56;;;;;;;61.92;44.83;;;;;;;;;;4993344;28;20723;-83
2022/01/11 00:06:32;;;;;;;55.55;44.00;;;;;;;;;;4993280;28;20207;-83
2022/01/11 00:09:07;;;;;;;53.38;42.78;;;;;;;;;;4993244;28;20288;-83
2022/01/11 00:11:37;;;;;;;57.75;44.78;;;;;;;;;;4993480;28;20669;-83
2022/01/11 00:14:04;;;;;;;66.55;45.65;;;;;;;;;;4993689;28;20190;-83
2022/01/11 00:16:31;;;;;;;58.80;44.97;;;;;;;;;;4993099;28;20195;-84
2022/01/11 00:19:05;;;;;;;65.05;46.78;;;;;;;;;;4993490;28;20265;-82
2022/01/11 00:21:32;;;;;;;58.92;45.63;;;;;;;;;;4993654;28;20610;-84
2022/01/11 00:26:46;;;;;;;63.90;46.67;;;;;;;;;;4996083;28;20201;-82
2022/01/11 00:29:13;;;;;;;59.15;45.33;;;;;;;;;;4997250;28;20195;-83
2022/01/11 00:31:43;;;;;;;65.95;46.53;;;;;;;;;;4996916;28;20209;-83
2022/01/11 00:34:11;;;;;;;63.85;44.08;;;;;;;;;;4997232;28;20197;-83
2022/01/11 00:36:42;;;;;;;70.88;44.95;;;;;;;;;;4979816;28;20190;-83
2022/01/11 00:39:10;;;;;;;61.30;42.40;;;;;;;;;;4996691;28;20202;-83
2022/01/11 00:41:38;;;;;;;63.83;46.42;;;;;;;;;;4996731;28;20246;-83
2022/01/11 00:44:08;;;;;;;60.42;43.55;;;;;;;;;;4997156;28;20613;-83
2022/01/11 00:46:36;;;;;;;55.30;43.60;;;;;;;;;;4996767;28;20190;-84
2022/01/11 00:49:04;;;;;;;59.17;42.75;;;;;;;;;;4996694;28;20194;-82
2022/01/11 00:51:31;;;;;;;55.75;41.75;;;;;;;;;;4996579;28;20201;-83
2022/01/11 00:53:59;;;;;;;54.28;44.05;;;;;;;;;;4996552;28;20675;-82
2022/01/11 00:56:26;;;;;;;48.67;41.13;;;;;;;;;;4979101;28;20214;-83
2022/01/11 00:58:54;;;;;;;48.53;40.67;;;;;;;;;;4996547;28;20233;-83
2022/01/11 01:01:23;;;;;;;67.07;44.00;;;;;;;;;;4996236;28;20215;-83
2022/01/11 01:03:50;;;;;;;59.25;42.47;;;;;;;;;;4996487;28;20296;-83
2022/01/11 01:06:17;;;;;;;66.00;45.20;;;;;;;;;;4996054;28;20186;-83
2022/01/11 01:08:45;;;;;;;63.58;44.47;;;;;;;;;;4979016;28;20297;-83
2022/01/11 01:11:12;;;;;;;60.70;43.60;;;;;;;;;;4996595;28;20190;-83
2022/01/11 01:13:40;;;;;;;56.10;44.33;;;;;;;;;;4996404;28;20559;-82
2022/01/11 01:16:08;;;;;;;52.15;42.25;;;;;;;;;;4996376;28;20191;-83
2022/01/11 01:18:37;;;;;;;48.10;40.03;;;;;;;;;;4996368;28;20246;-83
2022/01/11 01:21:05;;;;;;;51.80;41.58;;;;;;;;;;4996328;28;20198;-83
2022/01/11 01:23:33;;;;;;;50.92;41.80;;;;;;;;;;4996170;28;20282;-83
2022/01/11 01:26:01;;;;;;;47.63;39.90;;;;;;;;;;4996177;28;20256;-83
2022/01/11 01:28:28;;;;;;;55.55;42.20;;;;;;;;;;4996087;28;20576;-82
2022/01/11 01:31:00;;;;;;;54.50;41.42;;;;;;;;;;4996145;28;20191;-83
2022/01/11 01:33:28;;;;;;;56.08;40.67;;;;;;;;;;4996166;28;20221;-83
2022/01/11 01:36:01;;;;;;;50.78;39.45;;;;;;;;;;4995297;28;20190;-83
2022/01/11 01:38:29;;;;;;;60.85;42.53;;;;;;;;;;4995668;28;20218;-82
2022/01/11 01:41:02;;;;;;;50.03;38.78;;;;;;;;;;4995992;28;20201;-83
2022/01/11 01:43:30;;;;;;;48.17;39.53;;;;;;;;;;4995870;28;20194;-82
2022/01/11 01:46:00;;;;;;;56.92;40.80;;;;;;;;;;4995804;28;20526;-83
2022/01/11 01:48:28;;;;;;;54.47;39.63;;;;;;;;;;4995757;28;20244;-83
2022/01/11 01:50:57;;;;;;;50.35;38.58;;;;;;;;;;4995699;28;20564;-83
2022/01/11 01:53:24;;;;;;;42.28;36.10;;;;;;;;;;4995507;28;20202;-83
2022/01/11 01:55:52;;;;;;;46.58;35.97;;;;;;;;;;4995726;28;20270;-83
2022/01/11 01:58:19;;;;;;;41.67;35.83;;;;;;;;;;4995350;28;20215;-83
2022/01/11 02:00:53;;;;;;;49.40;37.25;;;;;;;;;;4995569;28;20186;-83
2022/01/11 02:03:26;;;;;;;42.75;38.13;;;;;;;;;;4995516;28;20221;-83
2022/01/11 02:05:54;;;;;;;42.60;37.60;;;;;;;;;;4995372;28;20202;-83
2022/01/11 02:08:22;;;;;;;47.00;38.15;;;;;;;;;;4994896;28;20234;-83
2022/01/11 02:13:53;;;;;;;39.25;35.00;;;;;;;;;;4995064;28;20208;-83
2022/01/11 02:16:22;;;;;;;38.03;34.03;;;;;;;;;;4994851;28;20190;-83
2022/01/11 02:18:50;;;;;;;39.90;34.30;;;;;;;;;;4977325;28;20269;-83
2022/01/11 02:21:19;;;;;;;38.50;34.30;;;;;;;;;;4995192;28;20203;-84
2022/01/11 02:23:46;;;;;;;35.28;31.67;;;;;;;;;;4994959;28;20186;-83
2022/01/11 02:26:14;;;;;;;43.38;34.50;;;;;;;;;;4995155;28;20220;-83
2022/01/11 02:28:41;;;;;;;39.60;33.20;;;;;;;;;;4994779;28;20664;-83
2022/01/11 02:31:12;;;;;;;36.60;32.65;;;;;;;;;;4995117;28;20253;-83
2022/01/11 02:33:43;;;;;;;40.67;33.40;;;;;;;;;;4994495;28;20656;-82
2022/01/11 02:36:12;;;;;;;36.00;32.20;;;;;;;;;;4994595;28;20209;-83
2022/01/11 02:38:40;;;;;;;36.30;32.25;;;;;;;;;;4994374;28;20693;-83
2022/01/11 02:41:08;;;;;;;33.20;29.95;;;;;;;;;;4994664;28;20821;-83
2022/01/11 02:43:35;;;;;;;42.75;30.80;;;;;;;;;;4994507;28;20287;-83
2022/01/11 02:46:02;;;;;;;38.13;30.67;;;;;;;;;;4994702;28;20254;-83
2022/01/11 02:48:30;;;;;;;33.13;29.60;;;;;;;;;;4994527;28;20190;-83
2022/01/11 02:50:57;;;;;;;34.30;30.77;;;;;;;;;;4994686;28;20194;-83
2022/01/11 02:53:25;;;;;;;35.45;30.25;;;;;;;;;;4994816;28;20291;-83
2022/01/11 02:55:54;;;;;;;34.13;30.73;;;;;;;;;;4994816;28;20249;-83
2022/01/11 02:58:21;;;;;;;35.00;31.45;;;;;;;;;;4994796;28;20277;-83
2022/01/11 03:00:48;;;;;;;31.52;28.48;;;;;;;;;;4977801;28;20190;-83
2022/01/11 03:03:17;;;;;;;34.30;30.45;;;;;;;;;;4995381;28;20679;-83
2022/01/11 03:05:48;;;;;;;36.10;29.75;;;;;;;;;;4994762;28;20195;-83
2022/01/11 03:08:16;;;;;;;32.08;28.73;;;;;;;;;;4994118;28;20285;-83
2022/01/11 03:10:44;;;;;;;32.10;28.65;;;;;;;;;;4994466;28;20542;-83
2022/01/11 03:13:14;;;;;;;34.13;30.30;;;;;;;;;;4994271;28;20636;-83
2022/01/11 03:15:41;;;;;;;29.92;27.20;;;;;;;;;;4994552;28;20197;-83
2022/01/11 03:18:09;;;;;;;32.08;28.55;;;;;;;;;;4994054;28;20213;-82
2022/01/11 03:20:37;;;;;;;32.00;28.90;;;;;;;;;;4960812;28;20253;-83
2022/01/11 03:23:05;;;;;;;31.40;28.60;;;;;;;;;;4994233;28;20596;-82
2022/01/11 03:25:32;;;;;;;31.92;28.80;;;;;;;;;;4994184;28;20198;-83
2022/01/11 03:28:00;;;;;;;32.30;28.80;;;;;;;;;;4994658;28;20205;-83
2022/01/11 03:30:28;;;;;;;33.90;29.08;;;;;;;;;;4993983;28;20197;-83
2022/01/11 03:32:56;;;;;;;32.13;28.25;;;;;;;;;;4993906;28;20198;-83
2022/01/11 03:35:23;;;;;;;32.10;28.92;;;;;;;;;;4994203;28;20608;-83
2022/01/11 03:37:51;;;;;;;30.70;27.70;;;;;;;;;;4993568;28;20206;-83
2022/01/11 03:40:20;;;;;;;29.30;26.38;;;;;;;;;;4993782;28;20648;-83
2022/01/11 03:42:48;;;;;;;30.75;27.95;;;;;;;;;;4994054;28;20191;-83
2022/01/11 03:45:17;;;;;;;28.20;25.75;;;;;;;;;;4993891;28;20233;-83
2022/01/11 03:47:46;;;;;;;26.48;24.42;;;;;;;;;;4993734;28;20194;-83
2022/01/11 03:50:13;;;;;;;30.83;27.60;;;;;;;;;;4993959;28;20195;-83
2022/01/11 03:52:42;;;;;;;26.92;24.38;;;;;;;;;;4993844;28;20284;-83
2022/01/11 03:55:12;;;;;;;28.27;25.30;;;;;;;;;;4993565;28;20208;-83
2022/01/11 03:57:40;;;;;;;29.85;26.98;;;;;;;;;;4997363;28;20668;-83
2022/01/11 04:00:10;;;;;;;27.65;25.55;;;;;;;;;;4996428;28;20194;-83
2022/01/11 04:02:37;;;;;;;28.95;26.38;;;;;;;;;;4997868;28;20218;-83
2022/01/11 04:05:07;;;;;;;29.30;26.48;;;;;;;;;;4997502;28;20215;-83
2022/01/11 04:07:34;;;;;;;27.85;24.90;;;;;;;;;;4997756;28;20241;-83
2022/01/11 04:10:02;;;;;;;27.10;24.90;;;;;;;;;;4997773;28;20200;-82
2022/01/11 04:12:29;;;;;;;28.27;25.50;;;;;;;;;;4997872;28;20273;-82
2022/01/11 04:14:57;;;;;;;29.48;26.98;;;;;;;;;;4997450;28;20191;-83
2022/01/11 04:17:24;;;;;;;26.58;24.33;;;;;;;;;;4997449;28;20195;-82
2022/01/11 04:19:52;;;;;;;27.95;25.75;;;;;;;;;;4997351;28;20758;-83
2022/01/11 04:22:21;;;;;;;26.60;24.20;;;;;;;;;;4998098;28;20220;-82
2022/01/11 04:24:48;;;;;;;27.33;25.02;;;;;;;;;;4997613;28;20238;-82
2022/01/11 04:27:16;;;;;;;26.73;24.33;;;;;;;;;;4998450;28;20547;-83
2022/01/11 04:29:43;;;;;;;27.52;25.50;;;;;;;;;;4997539;28;20264;-83
2022/01/11 04:32:10;;;;;;;28.15;25.75;;;;;;;;;;4998446;28;20257;-83
2022/01/11 04:34:38;;;;;;;26.20;24.05;;;;;;;;;;4998968;28;20205;-83
2022/01/11 04:37:05;;;;;;;27.42;25.17;;;;;;;;;;5004541;28;20237;-83
2022/01/11 04:39:34;;;;;;;26.30;24.17;;;;;;;;;;4997987;28;20301;-83
2022/01/11 04:42:01;;;;;;;25.92;23.55;;;;;;;;;;4997566;28;20257;-83
2022/01/11 04:44:29;;;;;;;27.25;24.83;;;;;;;;;;4997384;28;20198;-82
2022/01/11 04:46:56;;;;;;;25.85;23.85;;;;;;;;;;4997190;28;20206;-83
2022/01/11 04:49:24;;;;;;;26.88;24.67;;;;;;;;;;4996674;28;20198;-83
2022/01/11 04:51:53;;;;;;;26.20;24.05;;;;;;;;;;4997386;28;20194;-84
2022/01/11 04:54:21;;;;;;;28.67;24.73;;;;;;;;;;4996957;28;20194;-83
2022/01/11 04:56:49;;;;;;;26.35;24.40;;;;;;;;;;4996774;28;20195;-83
2022/01/11 04:59:17;;;;;;;27.20;24.80;;;;;;;;;;4996629;28;20222;-83
2022/01/11 05:01:44;;;;;;;25.17;23.38;;;;;;;;;;4979299;28;20231;-82
2022/01/11 05:04:13;;;;;;;25.55;23.55;;;;;;;;;;4996985;28;20670;-82
2022/01/11 05:06:40;;;;;;;25.75;23.65;;;;;;;;;;4996568;28;20569;-82
2022/01/11 05:09:07;;;;;;;26.17;24.30;;;;;;;;;;4996857;28;20199;-83
2022/01/11 05:11:35;;;;;;;26.45;24.42;;;;;;;;;;4995820;28;20703;-83
2022/01/11 05:14:03;;;;;;;27.17;24.92;;;;;;;;;;4997011;28;20253;-82
2022/01/11 05:16:31;;;;;;;28.58;26.00;;;;;;;;;;4996954;28;20191;-82
2022/01/11 05:18:58;;;;;;;28.25;25.85;;;;;;;;;;4996808;28;20300;-82
2022/01/11 05:21:26;;;;;;;25.45;23.42;;;;;;;;;;5010238;28;20203;-83
2022/01/11 05:23:53;;;;;;;26.27;24.08;;;;;;;;;;4998062;28;20190;-83
2022/01/11 05:26:20;;;;;;;27.40;25.00;;;;;;;;;;4997971;28;20234;-83
2022/01/11 05:28:47;;;;;;;25.02;23.23;;;;;;;;;;4996553;28;20194;-83
2022/01/11 05:31:16;;;;;;;27.17;24.35;;;;;;;;;;4996066;28;20660;-83
2022/01/11 05:33:44;;;;;;;25.60;23.27;;;;;;;;;;4996658;28;20254;-83
2022/01/11 05:36:11;;;;;;;25.08;22.65;;;;;;;;;;4995925;28;20595;-83
2022/01/11 05:38:38;;;;;;;25.52;23.63;;;;;;;;;;4996024;28;20268;-81
2022/01/11 05:41:06;;;;;;;24.65;22.83;;;;;;;;;;4996413;28;20186;-82
2022/01/11 05:43:33;;;;;;;24.27;22.67;;;;;;;;;;4997459;28;20191;-83
2022/01/11 05:46:00;;;;;;;25.48;23.52;;;;;;;;;;4997350;28;20195;-83
2022/01/11 05:48:32;;;;;;;25.92;23.95;;;;;;;;;;4996072;28;20245;-83
2022/01/11 05:50:59;;;;;;;24.52;22.70;;;;;;;;;;4996328;28;20262;-83
2022/01/11 05:53:27;;;;;;;25.90;23.70;;;;;;;;;;4995602;28;20695;-83
2022/01/11 05:55:54;;;;;;;26.40;24.27;;;;;;;;;;4995833;28;20198;-83
2022/01/11 05:58:22;;;;;;;25.58;23.30;;;;;;;;;;4995728;28;20586;-83
2022/01/11 06:00:49;;;;;;;24.83;22.83;;;;;;;;;;4995914;28;20205;-83
2022/01/11 06:03:16;;;;;;;24.42;22.60;;;;;;;;;;4995996;28;20226;-83
2022/01/11 06:05:45;;;;;;;25.13;23.30;;;;;;;;;;4995268;28;20194;-83
2022/01/11 06:08:16;;;;;;;24.50;22.15;;;;;;;;;;4995400;28;20647;-83
2022/01/11 06:10:43;;;;;;;23.50;21.60;;;;;;;;;;4995556;28;20198;-83
2022/01/11 06:13:11;;;;;;;23.48;21.77;;;;;;;;;;4996062;28;20286;-83
2022/01/11 06:15:38;;;;;;;23.27;21.80;;;;;;;;;;4996361;28;20194;-82
2022/01/11 06:18:06;;;;;;;23.38;21.40;;;;;;;;;;4996353;28;20647;-83
2022/01/11 06:20:33;;;;;;;22.80;21.17;;;;;;;;;;4995198;28;20236;-83
2022/01/11 06:23:02;;;;;;;23.98;22.08;;;;;;;;;;4996223;28;20613;-83
2022/01/11 06:25:29;;;;;;;23.48;21.77;;;;;;;;;;4995734;28;20195;-82
2022/01/11 06:27:57;;;;;;;23.65;21.85;;;;;;;;;;4995671;28;20192;-83
2022/01/11 06:30:24;;;;;;;24.48;22.48;;;;;;;;;;4995824;28;20213;-83
2022/01/11 06:32:51;;;;;;;24.80;22.17;;;;;;;;;;4995537;28;20644;-83
2022/01/11 06:35:19;;;;;;;23.00;21.33;;;;;;;;;;4995161;28;20302;-81
2022/01/11 06:37:47;;;;;;;24.38;22.00;;;;;;;;;;4995000;28;20269;-83
2022/01/11 06:40:18;;;;;;;23.33;21.83;;;;;;;;;;4994699;28;20591;-81
2022/01/11 06:42:45;;;;;;;23.63;21.80;;;;;;;;;;4994747;28;20190;-83
2022/01/11 06:45:12;;;;;;;25.35;22.88;;;;;;;;;;4995439;28;20261;-83
2022/01/11 06:47:40;;;;;;;23.10;21.40;;;;;;;;;;4994813;28;20198;-83
2022/01/11 06:50:08;;;;;;;23.15;21.55;;;;;;;;;;4994600;28;20738;-83
2022/01/11 06:52:35;;;;;;;22.92;21.02;;;;;;;;;;4994684;28;20198;-83
2022/01/11 06:55:03;;;;;;;25.20;23.02;;;;;;;;;;4994384;28;20212;-83
2022/01/11 06:57:32;;;;;;;23.33;21.70;;;;;;;;;;4994579;28;20195;-83
2022/01/11 06:59:59;;;;;;;25.23;23.23;;;;;;;;;;4977403;28;20221;-82
2022/01/11 07:02:27;;;;;;;29.40;26.75;;;;;;;;;;4976982;28;20222;-83
2022/01/11 07:04:56;;;;;;;31.27;28.77;;;;;;;;;;4994677;28;20257;-83
2022/01/11 07:07:24;;;;;;;39.67;35.70;;;;;;;;;;4993960;28;20282;-83
2022/01/11 07:09:51;;;;;;;28.95;26.58;;;;;;;;;;4994527;28;20241;-83
2022/01/11 07:12:19;;;;;;;35.03;32.00;;;;;;;;;;4976794;28;20705;-82
2022/01/11 07:14:47;;;;;;;25.58;23.77;;;;;;;;;;4979927;28;20202;-83
2022/01/11 07:17:16;;;;;;;27.95;25.80;;;;;;;;;;4993982;28;20194;-82
2022/01/11 07:19:43;;;;;;;27.75;25.33;;;;;;;;;;4993851;28;20273;-83
2022/01/11 07:22:11;;;;;;;26.63;24.50;;;;;;;;;;4993654;28;20261;-82
2022/01/11 07:24:38;;;;;;;26.08;24.15;;;;;;;;;;4993902;28;20194;-82
2022/01/11 07:27:06;;;;;;;46.92;42.20;;;;;;;;;;4994208;28;20202;-83
2022/01/11 07:29:33;;;;;;;44.58;39.90;;;;;;;;;;4993840;28;20201;-83
2022/01/11 07:32:02;;;;;;;28.70;26.50;;;;;;;;;;4993921;28;20205;-83
2022/01/11 07:34:29;;;;;;;29.95;26.98;;;;;;;;;;4993334;28;20214;-83
2022/01/11 07:36:57;;;;;;;28.98;26.23;;;;;;;;;;4993994;28;20190;-83
2022/01/11 07:39:24;;;;;;;25.23;23.00;;;;;;;;;;4993730;28;20225;-82
2022/01/11 07:41:51;;;;;;;28.50;26.23;;;;;;;;;;4994126;28;20194;-83
2022/01/11 07:44:19;;;;;;;27.42;25.02;;;;;;;;;;4993888;28;20201;-82
2022/01/11 07:46:47;;;;;;;28.00;25.55;;;;;;;;;;4993896;28;20548;-83
2022/01/11 07:49:16;;;;;;;30.27;27.90;;;;;;;;;;4993738;28;20193;-82
2022/01/11 07:51:43;;;;;;;34.45;31.05;;;;;;;;;;4994201;28;20233;-82
2022/01/11 07:54:10;;;;;;;41.85;36.72;;;;;;;;;;4996350;28;20194;-83
2022/01/11 07:56:38;;;;;;;35.13;31.10;;;;;;;;;;4995444;28;20250;-83
2022/01/11 07:59:06;;;;;;;38.60;31.20;;;;;;;;;;4993968;28;20293;-83
2022/01/11 08:01:33;;;;;;;33.28;29.98;;;;;;;;;;4993319;28;20280;-82
2022/01/11 08:04:00;;;;;;;31.80;29.23;;;;;;;;;;4993556;28;20249;-82
2022/01/11 08:06:29;;;;;;;31.80;29.05;;;;;;;;;;4993384;28;21044;-83
2022/01/11 08:08:56;;;;;;;29.40;26.63;;;;;;;;;;4993583;28;20637;-83
2022/01/11 08:11:24;;;;;;;28.73;26.27;;;;;;;;;;4993602;28;20563;-83
2022/01/11 08:13:51;;;;;;;26.85;24.70;;;;;;;;;;4993636;28;20261;-82
2022/01/11 08:16:18;;;;;;;26.02;23.83;;;;;;;;;;4993469;28;20191;-83
2022/01/11 08:18:46;;;;;;;26.00;23.73;;;;;;;;;;4993740;28;20245;-83
2022/01/11 08:21:13;;;;;;;25.48;23.15;;;;;;;;;;4993648;28;20277;-83
2022/01/11 08:23:42;;;;;;;25.50;23.25;;;;;;;;;;4993380;28;20195;-82
2022/01/11 08:26:09;;;;;;;24.20;22.30;;;;;;;;;;4993358;28;20544;-83
2022/01/11 08:28:37;;;;;;;25.95;23.85;;;;;;;;;;4993630;28;20238;-83
2022/01/11 08:31:05;;;;;;;26.05;23.48;;;;;;;;;;4994035;28;20634;-82
2022/01/11 08:33:32;;;;;;;23.92;21.92;;;;;;;;;;4993282;28;20237;-83
2022/01/11 08:35:59;;;;;;;24.00;22.10;;;;;;;;;;4993295;28;20194;-83
2022/01/11 08:38:27;;;;;;;25.35;23.30;;;;;;;;;;4975113;28;20245;-83
2022/01/11 08:40:55;;;;;;;25.08;23.10;;;;;;;;;;4994084;28;20249;-89
2022/01/11 08:43:23;;;;;;;25.67;23.65;;;;;;;;;;4993874;28;20195;-83
2022/01/11 08:45:50;;;;;;;26.50;24.17;;;;;;;;;;4993517;28;20241;-91
2022/01/11 08:48:18;;;;;;;23.67;21.83;;;;;;;;;;4997449;28;20719;-84
2022/01/11 08:50:45;;;;;;;24.60;22.35;;;;;;;;;;4997556;28;20217;-93
2022/01/11 08:53:12;;;;;;;24.58;22.02;;;;;;;;;;4997544;28;20194;-91
2022/01/11 08:55:40;;;;;;;26.33;24.42;;;;;;;;;;5003416;28;20195;-93
2022/01/11 08:58:09;;;;;;;25.10;23.20;;;;;;;;;;4997488;28;20700;-92
2022/01/11 09:00:36;;;;;;;26.35;24.52;;;;;;;;;;4996835;28;20699;-83
2022/01/11 09:03:04;;;;;;;24.10;22.23;;;;;;;;;;4996503;28;20226;-83
2022/01/11 09:05:31;;;;;;;23.92;21.90;;;;;;;;;;4979047;28;20203;-83
2022/01/11 09:07:58;;;;;;;22.77;20.98;;;;;;;;;;4996834;28;20235;-83
2022/01/11 09:10:26;;;;;;;23.63;21.95;;;;;;;;;;4996489;28;20245;-83
2022/01/11 09:12:53;;;;;;;23.60;22.00;;;;;;;;;;4996155;28;20525;-83
2022/01/11 09:15:22;;;;;;;23.80;22.30;;;;;;;;;;4999411;28;20190;-86
2022/01/11 09:17:49;;;;;;;22.73;21.30;;;;;;;;;;4998479;28;20210;-83
2022/01/11 09:20:17;;;;;;;23.35;21.65;;;;;;;;;;4996726;28;20312;-83
2022/01/11 09:22:45;;;;;;;23.40;21.77;;;;;;;;;;4996154;28;20269;-87
2022/01/11 09:25:13;;;;;;;24.48;22.52;;;;;;;;;;4996715;28;20195;-83
2022/01/11 09:27:41;;;;;;;24.60;22.80;;;;;;;;;;4996514;28;20202;-85
2022/01/11 09:30:12;;;;;;;23.63;21.92;;;;;;;;;;4996575;28;20191;-85
2022/01/11 09:32:42;;;;;;;23.67;21.98;;;;;;;;;;4998325;28;20206;-85
2022/01/11 09:35:10;;;;;;;23.63;22.13;;;;;;;;;;4997596;28;20230;-85
2022/01/11 09:37:38;;;;;;;23.63;21.92;;;;;;;;;;4998327;28;20660;-87
2022/01/11 09:40:06;;;;;;;24.05;22.15;;;;;;;;;;4996823;28;20245;-86
2022/01/11 09:42:33;;;;;;;24.23;22.70;;;;;;;;;;4996475;28;20195;-85
2022/01/11 09:45:03;;;;;;;24.48;22.77;;;;;;;;;;4996146;28;20645;-85
2022/01/11 09:47:31;;;;;;;23.67;21.80;;;;;;;;;;4996387;28;20198;-84
2022/01/11 09:50:01;;;;;;;24.67;22.77;;;;;;;;;;4996242;28;20223;-84
2022/01/11 09:52:28;;;;;;;23.95;22.05;;;;;;;;;;4996471;28;20190;-85
2022/01/11 09:54:56;;;;;;;23.98;22.38;;;;;;;;;;4996298;28;20199;-85
2022/01/11 09:57:24;;;;;;;24.02;22.33;;;;;;;;;;4996210;28;20252;-85
2022/01/11 09:59:52;;;;;;;24.73;22.77;;;;;;;;;;4996287;28;20221;-85
2022/01/11 10:02:19;;;;;;;23.75;21.95;;;;;;;;;;4978538;28;20258;-85
2022/01/11 10:04:47;;;;;;;24.63;22.60;;;;;;;;;;4996120;28;20656;-85
2022/01/11 10:07:16;;;;;;;25.48;23.38;;;;;;;;;;4995637;28;20242;-85
2022/01/11 10:09:45;;;;;;;24.75;22.52;;;;;;;;;;4996074;28;20227;-85
2022/01/11 10:12:13;;;;;;;25.00;23.00;;;;;;;;;;4995628;28;20555;-86
2022/01/11 10:14:41;;;;;;;23.63;21.75;;;;;;;;;;4978711;28;20203;-85
2022/01/11 10:17:11;;;;;;;25.48;23.42;;;;;;;;;;4995505;28;20203;-84
2022/01/11 10:19:39;;;;;;;24.70;22.80;;;;;;;;;;4995738;28;20210;-86
2022/01/11 10:22:08;;;;;;;25.00;23.02;;;;;;;;;;4978227;28;20700;-86
2022/01/11 10:24:42;;;;;;;24.25;22.60;;;;;;;;;;4978539;28;20343;-85
2022/01/11 10:27:10;;;;;;;25.30;23.55;;;;;;;;;;4996013;28;20230;-85
2022/01/11 10:29:40;;;;;;;24.45;22.75;;;;;;;;;;4995940;28;20186;-85
2022/01/11 10:32:22;;;;;;;25.40;23.27;;;;;;;;;;4977722;28;20633;-86
2022/01/11 10:34:50;;;;;;;28.55;22.90;;;;;;;;;;4993064;28;20210;-84
2022/01/11 10:37:19;;;;;;;24.10;22.40;;;;;;;;;;4995523;28;20198;-85
2022/01/11 10:39:48;;;;;;;25.48;23.75;;;;;;;;;;4995548;28;20198;-85
2022/01/11 10:42:25;;;;;;;25.05;23.17;;;;;;;;;;4995553;28;20219;-85
2022/01/11 10:44:54;;;;;;;23.55;21.95;;;;;;;;;;4995478;28;20197;-85
2022/01/11 10:47:23;;;;;;;25.17;23.27;;;;;;;;;;4995587;28;20634;-85
2022/01/11 10:49:59;;;;;;;25.95;23.75;;;;;;;;;;4995489;28;20190;-85
2022/01/11 10:52:27;;;;;;;24.25;22.42;;;;;;;;;;4995202;28;20207;-85
2022/01/11 10:54:56;;;;;;;26.33;24.25;;;;;;;;;;4995147;28;20206;-85
2022/01/11 10:57:24;;;;;;;24.08;22.02;;;;;;;;;;4995188;28;20199;-85
2022/01/11 11:00:07;;;;;;;25.35;23.00;;;;;;;;;;4995247;28;20211;-85
2022/01/11 11:02:36;;;;;;;24.98;22.33;;;;;;;;;;4995072;28;20221;-84
2022/01/11 11:05:11;;;;;;;23.85;21.88;;;;;;;;;;4995162;28;20197;-85
2022/01/11 11:07:39;;;;;;;24.13;22.05;;;;;;;;;;4988845;28;20365;-85
2022/01/11 11:10:08;;;;;;;23.35;21.65;;;;;;;;;;5013541;28;20252;-85
2022/01/11 11:12:35;;;;;;;24.75;22.67;;;;;;;;;;5015140;28;20197;-85
2022/01/11 11:15:05;;;;;;;23.38;21.77;;;;;;;;;;5023848;28;20206;-85
2022/01/11 11:17:33;;;;;;;22.80;21.08;;;;;;;;;;5016889;28;20293;-85
2022/01/11 11:20:02;;;;;;;24.00;22.08;;;;;;;;;;5026178;28;20183;-85
2022/01/11 11:22:29;;;;;;;22.50;21.10;;;;;;;;;;5018092;28;20203;-84
2022/01/11 11:24:56;;;;;;;22.55;21.05;;;;;;;;;;5015772;28;20201;-85
2022/01/11 11:27:26;;;;;;;23.90;22.02;;;;;;;;;;5015516;28;20252;-86
2022/01/11 11:29:53;;;;;;;23.52;21.67;;;;;;;;;;5015085;28;20676;-85
2022/01/11 11:32:22;;;;;;;23.50;21.80;;;;;;;;;;5015963;28;20281;-85
2022/01/11 11:34:50;;;;;;;23.52;21.75;;;;;;;;;;5014369;28;20198;-84
2022/01/11 11:37:20;;;;;;;23.60;21.55;;;;;;;;;;4997342;28;20225;-85
2022/01/11 11:39:48;;;;;;;24.02;22.15;;;;;;;;;;4997848;28;20203;-85
2022/01/11 11:42:18;;;;;;;23.52;21.92;;;;;;;;;;4997824;28;20583;-84
2022/01/11 11:44:48;;;;;;;23.10;21.42;;;;;;;;;;4995943;28;20294;-85
2022/01/11 11:47:17;;;;;;;24.20;22.38;;;;;;;;;;5013480;28;20211;-87
2022/01/11 11:49:46;;;;;;;23.65;21.95;;;;;;;;;;5014897;28;20198;-84
2022/01/11 11:52:20;;;;;;;25.33;23.25;;;;;;;;;;5014565;28;20204;-84
2022/01/11 11:54:52;;;;;;;24.38;22.55;;;;;;;;;;5018195;28;20214;-84
2022/01/11 11:57:21;;;;;;;25.17;23.45;;;;;;;;;;5016255;28;20232;-83
2022/01/11 11:59:57;;;;;;;24.23;22.50;;;;;;;;;;5016309;28;20202;-83
2022/01/11 12:02:35;;;;;;;25.02;23.02;;;;;;;;;;5015169;28;20238;-82
2022/01/11 12:05:04;;;;;;;24.83;22.67;;;;;;;;;;5014914;28;20200;-85
2022/01/11 12:07:36;;;;;;;25.17;23.45;;;;;;;;;;4999671;28;20271;-84
2022/01/11 12:10:06;;;;;;;25.40;23.35;;;;;;;;;;5016641;28;20199;-83
2022/01/11 12:12:52;;;;;;;23.63;21.80;;;;;;;;;;5017050;28;20222;-81
2022/01/11 12:15:43;;;;;;;24.17;22.08;;;;;;;;;;5015495;28;20674;-81
2022/01/11 12:18:15;;;;;;;23.63;21.92;;;;;;;;;;4999931;28;20256;-83
2022/01/11 12:20:43;;;;;;;24.13;22.15;;;;;;;;;;5014654;28;20190;-83
2022/01/11 12:23:11;;;;;;;24.23;22.73;;;;;;;;;;5017062;28;20201;-82
2022/01/11 12:25:42;;;;;;;24.27;22.58;;;;;;;;;;5016767;28;20203;-82
2022/01/11 12:28:15;;;;;;;25.00;23.10;;;;;;;;;;5016762;28;20195;-82
2022/01/11 12:30:43;;;;;;;23.90;22.10;;;;;;;;;;5017276;28;20223;-82
2022/01/11 12:33:11;;;;;;;24.90;22.95;;;;;;;;;;5000177;28;20195;-82
2022/01/11 12:35:58;;;;;;;23.92;22.15;;;;;;;;;;5019154;28;20343;-82
2022/01/11 12:38:27;;;;;;;23.80;21.77;;;;;;;;;;5016438;28;20196;-83
2022/01/11 12:40:55;;;;;;;23.15;21.48;;;;;;;;;;5017788;28;20315;-81
2022/01/11 12:43:39;;;;;;;22.75;21.23;;;;;;;;;;4998672;28;20207;-83
2022/01/11 12:46:07;;;;;;;24.33;22.33;;;;;;;;;;5016151;28;20198;-83
2022/01/11 12:48:54;;;;;;;23.95;22.02;;;;;;;;;;4998273;28;20207;-82
2022/01/11 12:51:57;;;;;;;24.95;22.90;;;;;;;;;;5016443;28;20269;-83
2022/01/11 12:54:33;;;;;;;23.95;22.30;;;;;;;;;;5016361;28;20195;-85
2022/01/11 12:57:03;;;;;;;26.30;24.35;;;;;;;;;;5016413;28;20256;-84
2022/01/11 12:59:32;;;;;;;24.00;22.50;;;;;;;;;;4998307;28;20277;-82
2022/01/11 13:02:01;;;;;;;24.40;22.38;;;;;;;;;;5015967;28;20237;-83
2022/01/11 13:04:42;;;;;;;24.40;22.90;;;;;;;;;;5015907;28;20199;-83
2022/01/11 13:07:13;;;;;;;24.00;22.50;;;;;;;;;;5008420;28;20244;-81
2022/01/11 13:09:40;;;;;;;23.15;21.58;;;;;;;;;;4978526;28;20654;-83
2022/01/11 13:12:10;;;;;;;24.45;22.55;;;;;;;;;;4978627;28;20211;-83
2022/01/11 13:14:42;;;;;;;25.95;23.52;;;;;;;;;;4996131;28;20408;-83
2022/01/11 13:17:10;;;;;;;23.20;21.60;;;;;;;;;;4995795;28;20259;-81
2022/01/11 13:19:41;;;;;;;25.33;22.90;;;;;;;;;;4994802;28;20542;-82
2022/01/11 13:22:09;;;;;;;23.38;21.80;;;;;;;;;;4995757;28;20710;-82
2022/01/11 13:24:39;;;;;;;23.75;22.08;;;;;;;;;;4995845;28;20202;-82
2022/01/11 13:27:11;;;;;;;24.35;22.75;;;;;;;;;;4996096;28;20196;-82
2022/01/11 13:29:40;;;;;;;24.15;22.38;;;;;;;;;;4995927;28;20262;-82
2022/01/11 13:32:08;;;;;;;24.13;22.38;;;;;;;;;;4994912;28;20205;-83
2022/01/11 13:34:36;;;;;;;24.30;22.60;;;;;;;;;;4995681;28;20204;-82
2022/01/11 13:37:04;;;;;;;24.80;23.00;;;;;;;;;;4995810;28;20191;-84
2022/01/11 13:39:35;;;;;;;24.58;22.85;;;;;;;;;;4996203;28;20607;-86
2022/01/11 13:42:03;;;;;;;23.92;22.23;;;;;;;;;;4995337;28;20291;-83
2022/01/11 13:44:32;;;;;;;22.95;21.55;;;;;;;;;;4995744;28;20195;-83
2022/01/11 13:47:04;;;;;;;24.15;22.30;;;;;;;;;;4995423;28;20558;-82
2022/01/11 13:49:32;;;;;;;24.10;22.27;;;;;;;;;;4995789;28;20204;-83
2022/01/11 13:52:00;;;;;;;24.63;22.65;;;;;;;;;;4995116;28;20208;-82
2022/01/11 13:54:31;;;;;;;26.33;23.98;;;;;;;;;;4995207;28;20204;-82
2022/01/11 13:56:59;;;;;;;25.30;23.25;;;;;;;;;;4995227;28;20205;-83
2022/01/11 13:59:29;;;;;;;24.60;22.58;;;;;;;;;;4995430;28;20207;-83
2022/01/11 14:02:19;;;;;;;23.50;21.73;;;;;;;;;;4995029;28;20235;-83
2022/01/11 14:04:49;;;;;;;23.92;22.02;;;;;;;;;;4991168;28;20211;-83
2022/01/11 14:07:18;;;;;;;24.70;22.75;;;;;;;;;;4994830;28;20696;-83
2022/01/11 14:09:51;;;;;;;23.42;21.83;;;;;;;;;;4995135;28;20189;-83
2022/01/11 14:12:30;;;;;;;23.58;21.90;;;;;;;;;;4994804;28;20302;-83
2022/01/11 14:14:58;;;;;;;24.05;22.20;;;;;;;;;;4995115;28;20277;-83
2022/01/11 14:17:26;;;;;;;23.20;21.42;;;;;;;;;;4994787;28;20205;-83
2022/01/11 14:19:57;;;;;;;24.38;22.70;;;;;;;;;;4994487;28;20199;-83
2022/01/11 14:22:36;;;;;;;24.30;22.60;;;;;;;;;;4994538;28;20261;-83
2022/01/11 14:25:04;;;;;;;25.10;23.40;;;;;;;;;;4977291;28;20451;-83
2022/01/11 14:27:33;;;;;;;25.27;23.15;;;;;;;;;;4994713;28;20203;-83
2022/01/11 14:30:01;;;;;;;24.33;22.58;;;;;;;;;;4994882;28;20211;-83
2022/01/11 14:32:30;;;;;;;24.10;22.55;;;;;;;;;;4994419;28;20200;-82